createdAt,value
2023-04-27T00:01:48.694Z,1.30
2023-04-27T00:05:53.411Z,2.10
2023-04-27T00:09:56.634Z,1.65
2023-04-27T00:14:00.352Z,1.65
2023-04-27T00:18:05.484Z,2.08
2023-04-27T00:22:09.100Z,1.58
2023-04-27T00:26:12.890Z,2.15
2023-04-27T00:30:16.855Z,2.78
2023-04-27T00:34:21.497Z,2.58
2023-04-27T00:38:25.635Z,2.15
2023-04-27T00:42:29.058Z,1.67
2023-04-27T00:46:33.093Z,2.42
2023-04-27T00:50:38.865Z,1.75
2023-04-27T00:54:42.625Z,1.98
2023-04-27T00:58:48.548Z,2.22
2023-04-27T01:02:54.427Z,2.75
2023-04-27T01:06:59.765Z,2.33
2023-04-27T01:11:03.590Z,2.85
2023-04-27T01:15:08.572Z,2.28
2023-04-27T01:19:12.360Z,1.77
2023-04-27T01:23:19.376Z,2.88
2023-04-27T01:27:23.135Z,2.00
2023-04-27T01:31:26.584Z,2.53
2023-04-27T01:35:30.027Z,2.08
2023-04-27T01:39:35.443Z,1.92
2023-04-27T01:43:38.808Z,2.15
2023-04-27T01:47:43.200Z,1.75
2023-04-27T01:51:46.503Z,1.88
2023-04-27T01:59:54.926Z,2.65
2023-04-27T02:03:58.477Z,2.25
2023-04-27T02:08:02.922Z,2.38
2023-04-27T02:12:08.605Z,2.00
2023-04-27T02:16:11.978Z,1.92
2023-04-27T02:20:15.579Z,2.45
2023-04-27T02:24:19.296Z,2.05
2023-04-27T02:28:24.378Z,2.30
2023-04-27T02:32:28.561Z,2.45
2023-04-27T02:36:32.603Z,2.55
2023-04-27T02:40:35.586Z,2.60
2023-04-27T02:44:41.227Z,1.65
2023-04-27T02:48:44.998Z,1.95
2023-04-27T02:52:48.199Z,3.10
2023-04-27T02:56:52.372Z,2.50
2023-04-27T03:00:58.955Z,2.58
2023-04-27T03:05:02.476Z,2.63
2023-04-27T03:09:06.390Z,2.42
2023-04-27T03:13:10.606Z,2.55
2023-04-27T03:17:15.073Z,2.60
2023-04-27T03:21:18.550Z,2.17
2023-04-27T03:25:22.677Z,2.00
2023-04-27T03:29:26.268Z,1.85
2023-04-27T03:33:31.024Z,1.67
2023-04-27T03:37:34.694Z,2.05
2023-04-27T03:41:38.479Z,2.15
2023-04-27T03:45:42.084Z,2.38
2023-04-27T03:49:47.807Z,2.35
2023-04-27T03:53:51.262Z,2.15
2023-04-27T03:57:57.457Z,1.85
2023-04-27T04:02:01.449Z,2.13
2023-04-27T04:06:07.141Z,1.92
2023-04-27T04:10:11.729Z,2.47
2023-04-27T04:14:15.302Z,2.40
2023-04-27T04:18:20.282Z,2.10
2023-04-27T04:22:27.778Z,1.92
2023-04-27T04:26:32.612Z,2.22
2023-04-27T04:30:36.328Z,2.17
2023-04-27T04:34:40.284Z,2.38
2023-04-27T04:38:45.311Z,1.98
2023-04-27T04:42:48.629Z,1.58
2023-04-27T04:46:53.692Z,2.10
2023-04-27T04:50:57.495Z,2.40
2023-04-27T04:55:02.083Z,2.13
2023-04-27T04:59:05.259Z,2.45
2023-04-27T05:03:08.687Z,2.05
2023-04-27T05:07:14.916Z,1.75
2023-04-27T05:11:20.431Z,2.20
2023-04-27T05:15:23.774Z,2.40
2023-04-27T05:19:27.703Z,2.22
2023-04-27T05:23:30.958Z,2.20
2023-04-27T05:27:36.058Z,2.13
2023-04-27T05:31:39.445Z,1.58
2023-04-27T05:35:43.439Z,1.50
2023-04-27T05:39:48.825Z,1.77
2023-04-27T05:43:53.711Z,1.17
2023-04-27T05:47:57.357Z,2.22
2023-04-27T05:52:01.598Z,2.00
2023-04-27T05:56:07.333Z,1.42
2023-04-27T06:00:13.979Z,1.58
2023-04-27T06:04:17.767Z,1.80
2023-04-27T06:08:20.988Z,2.42
2023-04-27T06:12:24.784Z,1.50
2023-04-27T06:16:30.113Z,1.98
2023-04-27T06:20:35.781Z,2.38
2023-04-27T06:24:40.292Z,1.38
2023-04-27T06:28:43.414Z,1.80
2023-04-27T06:32:48.817Z,2.20
2023-04-27T06:36:52.695Z,2.22
2023-04-27T06:40:55.973Z,1.67
2023-04-27T06:45:01.619Z,1.85
2023-04-27T06:49:07.006Z,2.00
2023-04-27T06:53:10.746Z,1.60
2023-04-27T06:57:15.470Z,1.88
2023-04-27T07:01:19.100Z,1.33
2023-04-27T07:05:23.661Z,2.13
2023-04-27T07:09:28.102Z,1.83
2023-04-27T07:13:32.440Z,1.73
2023-04-27T07:17:36.525Z,1.92
2023-04-27T07:21:41.863Z,2.53
2023-04-27T07:25:45.870Z,1.33
2023-04-27T07:29:49.304Z,1.95
2023-04-27T07:33:53.361Z,1.58
2023-04-27T07:37:58.396Z,2.42
2023-04-27T07:42:03.650Z,2.28
2023-04-27T07:46:07.224Z,1.98
2023-04-27T07:50:12.933Z,2.40
2023-04-27T07:54:17.484Z,2.00
2023-04-27T07:58:22.040Z,1.70
2023-04-27T08:02:25.573Z,1.58
2023-04-27T08:06:30.078Z,1.77
2023-04-27T08:10:34.866Z,1.98
2023-04-27T08:14:38.152Z,1.98
2023-04-27T08:18:41.356Z,2.55
2023-04-27T08:22:45.119Z,2.55
2023-04-27T08:26:50.086Z,2.03
2023-04-27T08:30:53.228Z,1.73
2023-04-27T08:34:57.302Z,1.98
2023-04-27T08:39:00.513Z,1.75
2023-04-27T08:43:10.651Z,1.80
2023-04-27T08:47:13.936Z,3.15
2023-04-27T08:51:18.828Z,1.75
2023-04-27T08:55:22.520Z,1.73
2023-04-27T08:59:27.964Z,2.08
2023-04-27T09:03:31.485Z,1.75
2023-04-27T09:07:35.044Z,2.17
2023-04-27T09:11:39.487Z,2.67
2023-04-27T09:15:48.407Z,2.20
2023-04-27T09:19:51.885Z,2.30
2023-04-27T09:23:56.443Z,2.20
2023-04-27T09:28:01.295Z,1.85
2023-04-27T09:32:17.843Z,1.73
2023-04-27T09:36:22.236Z,2.85
2023-04-27T09:40:28.645Z,1.75
2023-04-27T09:44:32.951Z,1.90
2023-04-27T09:48:40.852Z,2.15
2023-04-27T09:52:44.307Z,1.83
2023-04-27T09:57:03.043Z,2.20
2023-04-27T10:01:16.478Z,2.15
2023-04-27T10:05:44.276Z,1.73
2023-04-27T10:09:49.581Z,1.38
2023-04-27T10:13:54.841Z,1.55
2023-04-27T10:18:05.866Z,1.08
2023-04-27T10:22:10.706Z,1.38
2023-04-27T10:26:14.743Z,2.05
2023-04-27T10:30:52.508Z,1.15
2023-04-27T10:35:06.698Z,1.60
2023-04-27T10:39:19.168Z,1.40
2023-04-27T10:43:27.058Z,1.85
2023-04-27T10:47:39.537Z,1.63
2023-04-27T10:51:42.958Z,2.45
2023-04-27T10:55:50.191Z,1.83
2023-04-27T10:59:55.702Z,1.75
2023-04-27T11:03:59.884Z,2.15
2023-04-27T11:08:07.472Z,1.38
2023-04-27T11:12:15.136Z,2.50
2023-04-27T11:16:20.907Z,2.05
2023-04-27T11:20:26.882Z,1.95
2023-04-27T11:24:30.073Z,1.80
2023-04-27T11:28:34.940Z,1.83
2023-04-27T11:32:38.121Z,1.58
2023-04-27T11:36:41.667Z,2.00
2023-04-27T11:40:45.095Z,1.70
2023-04-27T11:44:56.718Z,1.80
2023-04-27T11:49:04.223Z,2.00
2023-04-27T11:53:08.048Z,2.28
2023-04-27T11:57:11.971Z,1.35
2023-04-27T12:01:27.542Z,1.83
2023-04-27T12:13:50.305Z,1.33
2023-04-27T12:17:54.751Z,1.65
2023-04-27T12:21:59.533Z,2.10
2023-04-27T12:26:03.144Z,2.75
2023-04-27T12:30:09.194Z,2.17
2023-04-27T12:34:13.991Z,1.70
2023-04-27T12:38:17.574Z,2.25
2023-04-27T12:42:24.557Z,1.63
2023-04-27T12:46:27.981Z,1.30
2023-04-27T12:50:32.946Z,1.15
2023-04-27T12:54:37.475Z,1.92
2023-04-27T12:58:42.186Z,1.83
2023-04-27T13:02:46.822Z,1.88
2023-04-27T13:06:51.476Z,1.55
2023-04-27T13:10:55.156Z,1.45
2023-04-27T13:14:58.172Z,1.85
2023-04-27T13:19:01.578Z,1.52
2023-04-27T13:23:06.696Z,2.33
2023-04-27T13:27:10.321Z,2.10
2023-04-27T13:31:13.775Z,2.03
2023-04-27T13:35:17.473Z,2.03
2023-04-27T13:39:22.498Z,2.15
2023-04-27T13:43:27.792Z,1.83
2023-04-27T13:47:36.845Z,1.92
2023-04-27T13:51:41.927Z,2.15
2023-04-27T13:55:46.912Z,1.90
2023-04-27T13:59:50.317Z,1.83
2023-04-27T14:03:53.725Z,1.73
2023-04-27T14:07:58.275Z,1.50
2023-04-27T14:12:03.204Z,1.80
2023-04-27T14:16:10.065Z,1.92
2023-04-27T14:20:13.832Z,1.75
2023-04-27T14:24:17.726Z,1.75
2023-04-27T14:28:24.122Z,1.77
2023-04-27T14:32:29.812Z,1.52
2023-04-27T14:36:33.503Z,1.52
2023-04-27T14:40:37.104Z,1.27
2023-04-27T14:44:42.046Z,1.88
2023-04-27T14:48:46.808Z,1.65
2023-04-27T14:52:49.990Z,1.45
2023-04-27T14:56:54.475Z,1.85
2023-04-27T15:00:59.382Z,1.65
2023-04-27T15:05:03.756Z,1.35
2023-04-27T15:09:07.251Z,1.67
2023-04-27T15:13:11.297Z,1.13
2023-04-27T15:17:15.913Z,1.90
2023-04-27T15:21:19.883Z,1.35
2023-04-27T15:25:23.150Z,1.30
2023-04-27T15:29:27.135Z,1.65
2023-04-27T15:33:33.014Z,1.35
2023-04-27T15:37:38.081Z,1.58
2023-04-27T15:41:41.826Z,1.77
2023-04-27T15:45:45.283Z,1.75
2023-04-27T15:49:57.315Z,1.90
2023-04-27T15:54:02.125Z,1.27
2023-04-27T15:58:05.264Z,1.95
2023-04-27T16:02:09.165Z,1.58
2023-04-27T16:06:13.711Z,1.00
2023-04-27T16:10:17.196Z,1.60
2023-04-27T16:14:20.550Z,1.58
2023-04-27T16:18:23.800Z,1.38
2023-04-27T16:22:29.270Z,1.42
2023-04-27T16:26:33.204Z,1.27
2023-04-27T16:30:38.450Z,1.63
2023-04-27T16:34:42.184Z,1.67
2023-04-27T16:38:46.725Z,1.30
2023-04-27T16:42:53.999Z,1.13
2023-04-27T16:46:57.110Z,1.83
2023-04-27T16:51:00.418Z,1.60
2023-04-27T16:55:07.717Z,1.38
2023-04-27T16:59:13.192Z,1.02
2023-04-27T17:03:16.793Z,1.08
2023-04-27T17:07:21.144Z,1.25
2023-04-27T17:11:26.644Z,1.20
2023-04-27T17:15:30.579Z,1.02
2023-04-27T17:19:34.055Z,1.42
2023-04-27T17:23:40.061Z,1.42
2023-04-27T17:27:44.785Z,1.45
2023-04-27T17:31:48.641Z,1.83
2023-04-27T17:35:51.710Z,1.15
2023-04-27T17:39:55.280Z,1.90
2023-04-27T17:44:12.629Z,1.08
2023-04-27T17:48:18.486Z,1.10
2023-04-27T17:52:21.714Z,1.02
2023-04-27T17:56:25.447Z,1.15
2023-04-27T18:00:30.653Z,2.05
2023-04-27T18:04:36.526Z,0.80
2023-04-27T18:08:39.642Z,0.82
2023-04-27T18:12:43.222Z,0.90
2023-04-27T18:16:47.659Z,1.23
2023-04-27T18:20:53.040Z,1.00
2023-04-27T18:24:56.105Z,1.75
2023-04-27T18:29:00.223Z,1.52
2023-04-27T18:33:05.181Z,1.20
2023-04-27T18:37:10.711Z,1.40
2023-04-27T18:41:13.630Z,2.28
2023-04-27T18:45:17.973Z,2.67
2023-04-27T18:49:22.773Z,1.80
2023-04-27T18:53:26.714Z,1.55
2023-04-27T18:57:29.841Z,1.20
2023-04-27T19:01:33.986Z,1.92
2023-04-27T19:05:40.842Z,1.10
2023-04-27T19:09:44.609Z,1.55
2023-04-27T19:13:47.635Z,1.15
2023-04-27T19:18:02.233Z,1.20
2023-04-27T19:22:14.086Z,1.77
2023-04-27T19:26:18.876Z,1.73
2023-04-27T19:30:22.408Z,1.15
2023-04-27T19:34:28.111Z,0.93
2023-04-27T19:38:33.054Z,1.23
2023-04-27T19:42:36.635Z,1.83
2023-04-27T19:46:39.963Z,1.58
2023-04-27T19:50:43.614Z,1.10
2023-04-27T19:54:52.414Z,1.95
2023-04-27T19:58:57.155Z,1.98
2023-04-27T20:03:00.566Z,2.35
2023-04-27T20:07:05.883Z,1.98
2023-04-27T20:11:12.527Z,2.78
2023-04-27T20:15:15.813Z,3.05
2023-04-27T20:19:19.752Z,2.83
2023-04-27T20:23:23.274Z,2.08
2023-04-27T20:27:27.874Z,3.10
2023-04-27T20:31:33.037Z,2.17
2023-04-27T20:35:37.382Z,2.30
2023-04-27T20:39:41.546Z,2.53
2023-04-27T20:43:46.255Z,2.47
2023-04-27T20:47:50.966Z,2.42
2023-04-27T20:51:55.814Z,2.97
2023-04-27T20:55:59.786Z,3.00
2023-04-27T21:00:05.351Z,2.92
2023-04-27T21:04:09.298Z,2.63
2023-04-27T21:08:12.812Z,1.98
2023-04-27T21:12:18.144Z,2.00
2023-04-27T21:16:22.789Z,2.15
2023-04-27T21:20:26.557Z,2.53
2023-04-27T21:24:30.414Z,3.90
2023-04-27T21:28:33.643Z,2.22
2023-04-27T21:32:38.647Z,2.58
2023-04-27T21:36:41.997Z,2.63
2023-04-27T21:40:45.560Z,1.85
2023-04-27T21:44:48.669Z,1.92
2023-04-27T21:48:53.603Z,2.75
2023-04-27T21:52:56.707Z,2.45
2023-04-27T21:57:00.028Z,1.85
2023-04-27T22:01:03.112Z,2.25
2023-04-27T22:05:08.218Z,3.03
2023-04-27T22:09:12.474Z,2.70
2023-04-27T22:13:19.389Z,3.10
2023-04-27T22:17:23.894Z,2.75
2023-04-27T22:21:29.309Z,3.40
2023-04-27T22:25:32.868Z,2.83
2023-04-27T22:29:36.403Z,2.53
2023-04-27T22:33:39.423Z,2.80
2023-04-27T22:37:45.798Z,3.55
2023-04-27T22:41:49.116Z,3.05
2023-04-27T22:45:52.388Z,3.35
2023-04-27T22:49:55.864Z,2.58
2023-04-27T22:54:00.821Z,2.67
2023-04-27T22:58:04.201Z,2.83
2023-04-27T23:02:08.322Z,4.35
2023-04-27T23:06:14.378Z,4.78
2023-04-27T23:10:19.437Z,3.30
2023-04-27T23:14:22.829Z,3.08
2023-04-27T23:18:26.825Z,3.72
2023-04-27T23:22:30.083Z,3.60
2023-04-27T23:26:34.985Z,4.10
2023-04-27T23:30:38.160Z,3.20
2023-04-27T23:34:41.729Z,3.92
2023-04-27T23:38:44.752Z,4.70
2023-04-27T23:42:52.400Z,3.92
2023-04-27T23:46:55.972Z,4.70
2023-04-27T23:51:03.700Z,4.32
2023-04-27T23:55:08.502Z,5.47
2023-04-27T23:59:15.419Z,4.22
